Main page
METAR-TAF:

METAR-TAF

Airports :

Falconara Airport

Ancona, Italy

latitude: 43-37N, longitude: 013-22E, elevation: 12 m

Current weather observation

The report was made 42 minutes ago, at 20:50 UTC
Wind 3 kt from the South
Temperature 11°C
Humidity 82%
Pressure 1019 hPa
Visibility 10 km or more
no clouds below 1500 m and no cumulonimbus

METAR: LIPY 232050Z 19003KT CAVOK 11/08 Q1019

Time: 23:32 (21:32 UTC)

Forecast

The report was made 4 hours and 32 minutes ago, at 17:00 UTC
Forecast valid from 23 at 18 UTC to 24 at 18 UTC
Wind 10 kt from the North/Northwest
Visibility 10 km or more
no clouds below 1500 m and no cumulonimbus

TAF: LIPY 231700Z 2318/2418 33010KT CAVOK

Weather observations and forecasts of more than 4000 airports (METAR and TAF reports).

The available stations are represented by yellow and red dots on the map.

Hover mouse over dot to see the name of the station.

Then click to see weather observations and forecasts.

To change the map : click on the green buttons with a black cross to zoom in, on the green button with a dash to zoom out, or on the green arrows for adjacent maps.


METAR-TAF: